首页
METAR-TAF:

METAR-TAF

机场 :

科迪, 怀俄明州, 美国

纬度: 44-31N, 经度: 109-01W, 海拔: 1551米

当前天气观测

该预报发布于26分钟前的15:56 UTC
静风
温度 23°C
湿度 33%
气压 1029 hPa
能見度: 16.1公里
天空无云

METAR: KCOD 211556Z AUTO 00000KT 10SM CLR 23/06 A3039 RMK AO2 SLP238 T02330061

时间: 10:22 (16:22 UTC)

预报

该预报发布于5小时和2分钟前的11:20 UTC
预报有效从21日的 12点(UTC)到 22日的 12点(UTC)
风速7节,风向西南
能見度: 10公里
少量云层高于10000英尺
从 21日的 1700点(UTC)
风速6节,风向北转东北
能見度: 10公里
少量云层高于10000英尺
从 21日的 2100点(UTC)
风速12节,风向东转东北
能見度: 10公里
散云层高于10000英尺
从 22日的 0300点(UTC)
风速5节,风向多变
能見度: 10公里
散云层高于20000英尺

TAF: KCOD 211120Z 2112/2212 22007KT P6SM FEW100 FM211700 03006KT P6SM FEW100 FM212100 06012KT P6SM SCT100 FM220300 VRB05KT P6SM SCT200

超过4000个机场的气象观测和天气预报(METAR&TAF报告)。

可查询的气象台以黄色和红色小点在地图上表示。

将鼠标移到小点上方,可查看气象台名称。

然后点击查看天气观测和预报。

如需切换地图:点击带黑十字的绿色按钮放大地图;点击带横线的绿色按钮缩小地图;或者点击绿色箭头查看邻近地区的地图。


METAR-TAF: